sensor_id;sensor_type;location;lat;lon;timestamp;pressure;altitude;pressure_sealevel;temperature;humidity
10658;BME280;5377;43.276;26.930;2023-01-08T00:07:52;99748.34;;;4.30;100.00
10658;BME280;5377;43.276;26.930;2023-01-08T09:03:48;99701.84;;;15.57;52.47
10658;BME280;5377;43.276;26.930;2023-01-08T09:06:15;99710.03;;;16.01;51.69
10658;BME280;5377;43.276;26.930;2023-01-08T09:08:42;99697.47;;;16.25;51.46
10658;BME280;5377;43.276;26.930;2023-01-08T09:11:09;99689.50;;;16.30;50.08
10658;BME280;5377;43.276;26.930;2023-01-08T09:13:36;99700.94;;;16.50;49.62
10658;BME280;5377;43.276;26.930;2023-01-08T09:16:04;99698.06;;;16.27;51.01
10658;BME280;5377;43.276;26.930;2023-01-08T09:18:31;99651.09;;;16.09;50.29
10658;BME280;5377;43.276;26.930;2023-01-08T09:21:03;99592.56;;;15.67;50.59
10658;BME280;5377;43.276;26.930;2023-01-08T09:23:30;99662.19;;;16.19;50.34
10658;BME280;5377;43.276;26.930;2023-01-08T09:26:00;99673.28;;;16.30;50.27
10658;BME280;5377;43.276;26.930;2023-01-08T09:28:27;99649.94;;;15.62;50.84
10658;BME280;5377;43.276;26.930;2023-01-08T09:30:54;99601.56;;;14.86;51.86
10658;BME280;5377;43.276;26.930;2023-01-08T09:43:36;99628.50;;;15.85;50.75
10658;BME280;5377;43.276;26.930;2023-01-08T09:46:05;99643.66;;;16.05;50.41
10658;BME280;5377;43.276;26.930;2023-01-08T09:48:35;99635.44;;;16.30;49.13
10658;BME280;5377;43.276;26.930;2023-01-08T09:51:03;99635.69;;;16.28;49.63
10658;BME280;5377;43.276;26.930;2023-01-08T09:53:32;99604.03;;;16.47;48.75
10658;BME280;5377;43.276;26.930;2023-01-08T09:56:00;99626.16;;;16.56;47.88
10658;BME280;5377;43.276;26.930;2023-01-08T09:58:35;99633.06;;;15.67;48.74
10658;BME280;5377;43.276;26.930;2023-01-08T10:02:18;99624.38;;;15.83;50.14
10658;BME280;5377;43.276;26.930;2023-01-08T10:08:20;99521.72;;;14.60;51.60
10658;BME280;5377;43.276;26.930;2023-01-08T10:20:58;99595.13;;;15.12;51.09
10658;BME280;5377;43.276;26.930;2023-01-08T10:33:25;99561.38;;;16.49;50.08
10658;BME280;5377;43.276;26.930;2023-01-08T10:35:59;99586.16;;;16.46;49.37
10658;BME280;5377;43.276;26.930;2023-01-08T10:38:39;99499.78;;;16.63;48.47
10658;BME280;5377;43.276;26.930;2023-01-08T10:41:09;99574.06;;;16.90;48.02
10658;BME280;5377;43.276;26.930;2023-01-08T10:43:48;99578.63;;;16.36;48.79
10658;BME280;5377;43.276;26.930;2023-01-08T10:46:20;99536.09;;;16.13;48.66
10658;BME280;5377;43.276;26.930;2023-01-08T10:48:52;99551.97;;;16.51;48.03
10658;BME280;5377;43.276;26.930;2023-01-08T10:54:45;99560.81;;;17.12;47.38
10658;BME280;5377;43.276;26.930;2023-01-08T10:57:20;99564.47;;;17.06;47.27
10658;BME280;5377;43.276;26.930;2023-01-08T10:59:48;99545.75;;;17.04;47.68
10658;BME280;5377;43.276;26.930;2023-01-08T11:02:20;99552.78;;;18.16;45.73
10658;BME280;5377;43.276;26.930;2023-01-08T11:04:51;99450.91;;;17.11;45.41
10658;BME280;5377;43.276;26.930;2023-01-08T11:07:20;99540.38;;;17.91;44.70
10658;BME280;5377;43.276;26.930;2023-01-08T11:09:49;99431.44;;;17.26;44.58
10658;BME280;5377;43.276;26.930;2023-01-08T11:12:30;99546.91;;;17.55;44.80
10658;BME280;5377;43.276;26.930;2023-01-08T11:14:58;99522.56;;;17.43;44.87
10658;BME280;5377;43.276;26.930;2023-01-08T11:17:26;99531.28;;;18.26;43.95
10658;BME280;5377;43.276;26.930;2023-01-08T11:20:06;99362.56;;;17.62;42.59
10658;BME280;5377;43.276;26.930;2023-01-08T11:22:33;99528.44;;;18.94;41.67
10658;BME280;5377;43.276;26.930;2023-01-08T11:25:00;99522.47;;;19.70;40.97
10658;BME280;5377;43.276;26.930;2023-01-08T11:27:30;99500.78;;;19.14;40.54
10658;BME280;5377;43.276;26.930;2023-01-08T11:30:01;99457.66;;;18.34;41.12
10658;BME280;5377;43.276;26.930;2023-01-08T11:32:39;99524.03;;;18.43;41.69
10658;BME280;5377;43.276;26.930;2023-01-08T11:35:12;99519.19;;;18.45;41.50
10658;BME280;5377;43.276;26.930;2023-01-08T11:37:46;99517.53;;;18.61;41.22
10658;BME280;5377;43.276;26.930;2023-01-08T11:40:17;99500.63;;;18.25;41.71
10658;BME280;5377;43.276;26.930;2023-01-08T11:43:03;99496.44;;;18.63;39.53
10658;BME280;5377;43.276;26.930;2023-01-08T11:45:43;99510.03;;;18.80;40.10
10658;BME280;5377;43.276;26.930;2023-01-08T11:48:25;99504.41;;;19.42;38.95
10658;BME280;5377;43.276;26.930;2023-01-08T11:51:19;99497.63;;;19.22;39.02
10658;BME280;5377;43.276;26.930;2023-01-08T11:53:58;99493.06;;;19.45;38.60
10658;BME280;5377;43.276;26.930;2023-01-08T11:56:41;99499.47;;;19.39;37.99
10658;BME280;5377;43.276;26.930;2023-01-08T11:59:18;99499.16;;;19.35;38.54
10658;BME280;5377;43.276;26.930;2023-01-08T12:01:59;99503.00;;;19.17;38.53
10658;BME280;5377;43.276;26.930;2023-01-08T12:05:05;99498.16;;;19.02;38.37
10658;BME280;5377;43.276;26.930;2023-01-08T12:11:02;99422.66;;;17.70;38.99
10658;BME280;5377;43.276;26.930;2023-01-08T12:14:16;99486.97;;;18.99;38.46
10658;BME280;5377;43.276;26.930;2023-01-08T12:16:55;99461.31;;;18.90;37.65
10658;BME280;5377;43.276;26.930;2023-01-08T12:19:38;99450.78;;;19.32;37.57
10658;BME280;5377;43.276;26.930;2023-01-08T12:22:43;99469.91;;;19.59;37.35
10658;BME280;5377;43.276;26.930;2023-01-08T12:25:25;99464.16;;;19.39;36.73
10658;BME280;5377;43.276;26.930;2023-01-08T12:28:10;99485.53;;;18.75;37.30
10658;BME280;5377;43.276;26.930;2023-01-08T12:30:55;99485.09;;;18.21;38.33
10658;BME280;5377;43.276;26.930;2023-01-08T12:33:32;99488.72;;;17.98;39.28
10658;BME280;5377;43.276;26.930;2023-01-08T12:36:04;99477.47;;;17.89;39.09
10658;BME280;5377;43.276;26.930;2023-01-08T12:38:36;99388.41;;;17.53;38.72
10658;BME280;5377;43.276;26.930;2023-01-08T12:41:07;99485.78;;;18.28;38.53
10658;BME280;5377;43.276;26.930;2023-01-08T12:46:42;99476.41;;;17.38;39.71
10658;BME280;5377;43.276;26.930;2023-01-08T12:52:28;99407.69;;;17.68;38.33
10658;BME280;5377;43.276;26.930;2023-01-08T12:55:04;99471.47;;;17.87;38.25
10658;BME280;5377;43.276;26.930;2023-01-08T12:57:39;99487.41;;;18.29;38.05
10658;BME280;5377;43.276;26.930;2023-01-08T13:00:17;99486.47;;;18.06;38.27
10658;BME280;5377;43.276;26.930;2023-01-08T13:02:52;99489.53;;;17.58;38.78
10658;BME280;5377;43.276;26.930;2023-01-08T13:05:29;99480.50;;;17.53;38.84
10658;BME280;5377;43.276;26.930;2023-01-08T13:07:59;99487.84;;;16.94;39.57
10658;BME280;5377;43.276;26.930;2023-01-08T13:10:34;99490.72;;;17.74;38.90
10658;BME280;5377;43.276;26.930;2023-01-08T13:13:02;99494.41;;;17.33;38.79
10658;BME280;5377;43.276;26.930;2023-01-08T13:15:32;99494.25;;;17.63;38.60
10658;BME280;5377;43.276;26.930;2023-01-08T13:28:23;99489.31;;;18.00;37.40
10658;BME280;5377;43.276;26.930;2023-01-08T13:31:07;99492.19;;;17.41;37.63
10658;BME280;5377;43.276;26.930;2023-01-08T13:33:39;99499.56;;;17.58;37.79
10658;BME280;5377;43.276;26.930;2023-01-08T13:36:19;99498.94;;;17.79;37.49
10658;BME280;5377;43.276;26.930;2023-01-08T13:45:31;99499.75;;;18.36;36.94
10658;BME280;5377;43.276;26.930;2023-01-08T13:48:00;99474.34;;;18.26;36.67
10658;BME280;5377;43.276;26.930;2023-01-08T13:50:27;99486.00;;;18.72;36.08
10658;BME280;5377;43.276;26.930;2023-01-08T13:52:56;99488.13;;;18.69;36.11
10658;BME280;5377;43.276;26.930;2023-01-08T13:55:27;99505.22;;;18.53;36.20
10658;BME280;5377;43.276;26.930;2023-01-08T13:57:58;99472.69;;;18.08;36.67
10658;BME280;5377;43.276;26.930;2023-01-08T14:00:29;99495.06;;;18.03;36.43
10658;BME280;5377;43.276;26.930;2023-01-08T14:02:57;99487.00;;;17.92;36.75
10658;BME280;5377;43.276;26.930;2023-01-08T14:05:28;99499.28;;;17.83;37.00
10658;BME280;5377;43.276;26.930;2023-01-08T14:07:56;99485.66;;;18.06;36.99
10658;BME280;5377;43.276;26.930;2023-01-08T14:10:23;99500.88;;;18.24;36.57
10658;BME280;5377;43.276;26.930;2023-01-08T14:12:52;99498.94;;;17.79;37.11
10658;BME280;5377;43.276;26.930;2023-01-08T14:15:23;99468.78;;;17.64;37.38
10658;BME280;5377;43.276;26.930;2023-01-08T14:17:51;99503.22;;;17.52;37.93
10658;BME280;5377;43.276;26.930;2023-01-08T14:20:25;99514.34;;;17.15;38.05
10658;BME280;5377;43.276;26.930;2023-01-08T14:22:55;99513.97;;;16.35;39.36
10658;BME280;5377;43.276;26.930;2023-01-08T14:25:23;99526.78;;;16.09;40.25
10658;BME280;5377;43.276;26.930;2023-01-08T14:27:54;99489.41;;;15.40;41.24
10658;BME280;5377;43.276;26.930;2023-01-08T14:30:48;99505.75;;;15.45;41.67
10658;BME280;5377;43.276;26.930;2023-01-08T14:33:16;99495.84;;;14.77;42.53
10658;BME280;5377;43.276;26.930;2023-01-08T14:35:45;99513.56;;;14.66;43.47
10658;BME280;5377;43.276;26.930;2023-01-08T14:38:14;99494.97;;;14.20;44.45
10658;BME280;5377;43.276;26.930;2023-01-08T14:40:44;99495.31;;;13.99;44.91
10658;BME280;5377;43.276;26.930;2023-01-08T14:43:16;99428.25;;;13.53;45.68
10658;BME280;5377;43.276;26.930;2023-01-08T14:45:46;99494.66;;;13.65;46.03
10658;BME280;5377;43.276;26.930;2023-01-08T14:48:17;99517.47;;;13.50;46.80
10658;BME280;5377;43.276;26.930;2023-01-08T14:51:07;99509.50;;;13.23;47.72
10658;BME280;5377;43.276;26.930;2023-01-08T14:53:41;99440.47;;;12.71;47.97
10658;BME280;5377;43.276;26.930;2023-01-08T14:56:27;99507.66;;;12.84;48.81
10658;BME280;5377;43.276;26.930;2023-01-08T14:58:55;99418.19;;;12.24;49.23
10658;BME280;5377;43.276;26.930;2023-01-08T15:01:25;99484.28;;;12.45;49.84
10658;BME280;5377;43.276;26.930;2023-01-08T15:07:19;99497.09;;;12.36;50.75
10658;BME280;5377;43.276;26.930;2023-01-08T15:09:56;99419.31;;;11.75;50.85
10658;BME280;5377;43.276;26.930;2023-01-08T15:12:24;99529.53;;;12.35;51.32
10658;BME280;5377;43.276;26.930;2023-01-08T15:14:52;99520.19;;;12.11;51.75
10658;BME280;5377;43.276;26.930;2023-01-08T15:17:59;99519.72;;;11.88;52.42
10658;BME280;5377;43.276;26.930;2023-01-08T15:20:29;99518.38;;;11.70;53.01
10658;BME280;5377;43.276;26.930;2023-01-08T15:22:57;99413.88;;;11.01;53.37
10658;BME280;5377;43.276;26.930;2023-01-08T15:25:27;99536.47;;;11.55;53.86
10658;BME280;5377;43.276;26.930;2023-01-08T15:27:57;99463.53;;;10.97;54.40
10658;BME280;5377;43.276;26.930;2023-01-08T15:30:30;99522.53;;;11.38;53.95
10658;BME280;5377;43.276;26.930;2023-01-08T15:33:06;99409.31;;;10.60;54.73
10658;BME280;5377;43.276;26.930;2023-01-08T15:35:33;99525.53;;;11.15;55.43
10658;BME280;5377;43.276;26.930;2023-01-08T15:38:05;99523.59;;;11.09;55.55
10658;BME280;5377;43.276;26.930;2023-01-08T15:44:02;99527.72;;;11.05;56.51
10658;BME280;5377;43.276;26.930;2023-01-08T15:46:29;99521.09;;;11.01;56.79
10658;BME280;5377;43.276;26.930;2023-01-08T15:48:56;99528.41;;;10.86;56.86
10658;BME280;5377;43.276;26.930;2023-01-08T15:51:56;99530.66;;;10.82;57.68
10658;BME280;5377;43.276;26.930;2023-01-08T15:58:17;99530.22;;;10.36;59.40
10658;BME280;5377;43.276;26.930;2023-01-08T16:04:07;99521.59;;;10.19;60.81
10658;BME280;5377;43.276;26.930;2023-01-08T16:10:26;99542.72;;;10.29;61.07
10658;BME280;5377;43.276;26.930;2023-01-08T16:13:09;99518.47;;;10.16;61.27
10658;BME280;5377;43.276;26.930;2023-01-08T16:15:38;99535.34;;;10.31;61.06
10658;BME280;5377;43.276;26.930;2023-01-08T16:18:04;99533.88;;;10.28;61.76
10658;BME280;5377;43.276;26.930;2023-01-08T16:20:37;99403.31;;;9.45;61.65
10658;BME280;5377;43.276;26.930;2023-01-08T16:23:04;99510.72;;;10.21;61.59
10658;BME280;5377;43.276;26.930;2023-01-08T16:25:31;99540.56;;;10.39;61.48
10658;BME280;5377;43.276;26.930;2023-01-08T16:28:36;99540.03;;;10.29;61.88
10658;BME280;5377;43.276;26.930;2023-01-08T16:31:10;99546.84;;;10.10;62.88
10658;BME280;5377;43.276;26.930;2023-01-08T16:33:37;99527.81;;;10.05;62.97
10658;BME280;5377;43.276;26.930;2023-01-08T16:36:07;99552.47;;;10.00;63.10
10658;BME280;5377;43.276;26.930;2023-01-08T16:45:07;99551.88;;;9.69;65.26
10658;BME280;5377;43.276;26.930;2023-01-08T16:47:36;99557.34;;;9.61;66.03
10658;BME280;5377;43.276;26.930;2023-01-08T16:50:04;99552.38;;;9.58;66.81
10658;BME280;5377;43.276;26.930;2023-01-08T16:52:33;99542.41;;;9.52;67.91
10658;BME280;5377;43.276;26.930;2023-01-08T16:55:00;99563.44;;;9.40;67.71
10658;BME280;5377;43.276;26.930;2023-01-08T17:00:35;99476.50;;;8.70;70.32
10658;BME280;5377;43.276;26.930;2023-01-08T17:03:04;99565.63;;;9.22;70.34
10658;BME280;5377;43.276;26.930;2023-01-08T17:05:31;99567.66;;;9.05;71.12
10658;BME280;5377;43.276;26.930;2023-01-08T17:08:00;99559.75;;;9.12;72.28
10658;BME280;5377;43.276;26.930;2023-01-08T17:10:26;99573.06;;;8.97;73.87
10658;BME280;5377;43.276;26.930;2023-01-08T17:13:11;99567.63;;;8.90;74.85
10658;BME280;5377;43.276;26.930;2023-01-08T17:19:06;99566.66;;;9.06;74.78
10658;BME280;5377;43.276;26.930;2023-01-08T17:25:15;99567.28;;;9.08;76.84
10658;BME280;5377;43.276;26.930;2023-01-08T17:31:06;99566.69;;;8.98;76.42
10658;BME280;5377;43.276;26.930;2023-01-08T17:33:34;99536.56;;;8.89;76.22
10658;BME280;5377;43.276;26.930;2023-01-08T17:36:26;99562.09;;;8.92;77.17
10658;BME280;5377;43.276;26.930;2023-01-08T17:42:19;99433.16;;;7.85;78.26
10658;BME280;5377;43.276;26.930;2023-01-08T17:48:27;99627.41;;;8.66;77.88
10658;BME280;5377;43.276;26.930;2023-01-08T18:07:50;99575.94;;;8.35;81.59
10658;BME280;5377;43.276;26.930;2023-01-08T18:13:46;99494.81;;;7.59;82.63
10658;BME280;5377;43.276;26.930;2023-01-08T18:19:45;99588.25;;;7.97;85.17
10658;BME280;5377;43.276;26.930;2023-01-08T18:29:22;99570.78;;;7.55;85.78
10658;BME280;5377;43.276;26.930;2023-01-08T18:35:31;99582.47;;;7.54;87.67
10658;BME280;5377;43.276;26.930;2023-01-08T18:44:47;99557.63;;;6.82;90.44
10658;BME280;5377;43.276;26.930;2023-01-08T18:50:55;99607.41;;;6.98;92.64
10658;BME280;5377;43.276;26.930;2023-01-08T19:03:28;99562.34;;;6.64;95.35
10658;BME280;5377;43.276;26.930;2023-01-08T19:16:22;99552.28;;;6.01;100.00
10658;BME280;5377;43.276;26.930;2023-01-08T19:25:59;99639.34;;;6.65;100.00
10658;BME280;5377;43.276;26.930;2023-01-08T19:31:48;99533.00;;;6.07;100.00
10658;BME280;5377;43.276;26.930;2023-01-08T19:37:44;99621.34;;;6.51;100.00
10658;BME280;5377;43.276;26.930;2023-01-08T19:47:08;99639.97;;;6.51;100.00
10658;BME280;5377;43.276;26.930;2023-01-08T19:56:36;99642.34;;;6.70;100.00
10658;BME280;5377;43.276;26.930;2023-01-08T20:08:58;99632.34;;;6.64;100.00
10658;BME280;5377;43.276;26.930;2023-01-08T20:15:20;99639.94;;;6.27;100.00
10658;BME280;5377;43.276;26.930;2023-01-08T20:25:16;99638.72;;;6.13;100.00
10658;BME280;5377;43.276;26.930;2023-01-08T20:31:17;99636.06;;;5.79;100.00
10658;BME280;5377;43.276;26.930;2023-01-08T20:37:44;99638.59;;;5.54;100.00
10658;BME280;5377;43.276;26.930;2023-01-08T20:43:49;99624.75;;;5.43;100.00
10658;BME280;5377;43.276;26.930;2023-01-08T20:49:47;99641.69;;;5.42;100.00
10658;BME280;5377;43.276;26.930;2023-01-08T22:53:02;99637.69;;;4.05;100.00
10658;BME280;5377;43.276;26.930;2023-01-08T22:56:06;99637.00;;;4.03;100.00
10658;BME280;5377;43.276;26.930;2023-01-08T23:05:59;99635.88;;;4.05;100.00
10658;BME280;5377;43.276;26.930;2023-01-08T23:12:19;99621.22;;;3.84;100.00
10658;BME280;5377;43.276;26.930;2023-01-08T23:18:11;99605.19;;;3.85;100.00
10658;BME280;5377;43.276;26.930;2023-01-08T23:24:27;99635.25;;;3.94;100.00
10658;BME280;5377;43.276;26.930;2023-01-08T23:30:34;99636.91;;;3.95;100.00
10658;BME280;5377;43.276;26.930;2023-01-08T23:36:28;99632.84;;;4.00;100.00
10658;BME280;5377;43.276;26.930;2023-01-08T23:45:52;99618.22;;;4.14;100.00
10658;BME280;5377;43.276;26.930;2023-01-08T23:51:43;99568.56;;;3.98;100.00
10658;BME280;5377;43.276;26.930;2023-01-08T23:58:16;99633.13;;;4.43;100.00
